Thursday, November 23, 2017, 4:36 AM EST
Back to Local

KTTN, Trenton Mercer County Airport

Location: Trenton, NJ, United States Lat: 40.283
Local Time: 4:36 AM EST ( 9:36 GMT) Lon: -74.817
Time Zone: US/Eastern Elev: 213 ft

Show me the last for .
Show Decoded

2017-11-23 03:53 METAR KTTN 230853Z AUTO 30003KT 10SM CLR M01/M08 A3011 RMK AO2 SLP192 T10061078
                 55000 =
2017-11-23 02:53 METAR KTTN 230753Z AUTO 33005KT 10SM CLR 00/M07 A3011 RMK AO2 SLP190 T00001072 =
2017-11-23 01:53 METAR KTTN 230653Z AUTO 33007KT 10SM CLR 00/M07 A3010 RMK AO2 SLP188 T00001067 =
2017-11-23 00:53 METAR KTTN 230553Z AUTO 32004KT 10SM CLR 01/M07 A3011 RMK AO2 SLP192 T00061067
                 10044 20000 50004 =
2017-11-22 23:53 METAR KTTN 230453Z AUTO 24003KT 10SM CLR 01/M06 A3012 RMK AO2 SLP196 T00061061
                 401330006 =
2017-11-22 22:53 METAR KTTN 230353Z AUTO 33005KT 10SM CLR 02/M06 A3012 RMK AO2 SLP193 T00171061 =
2017-11-22 21:53 METAR KTTN 230253Z 32006KT 10SM CLR 02/M05 A3010 RMK AO2 SLP188 T00221050 51017
                 =
2017-11-22 20:53 METAR KTTN 230153Z 33007KT 10SM CLR 03/M05 A3008 RMK AO2 SLP182 T00331050 =
2017-11-22 19:53 METAR KTTN 230053Z 33016G25KT 10SM FEW039 04/M05 A3007 RMK AO2 SLP178 T00391050
                 =
2017-11-22 18:53 METAR KTTN 222353Z 34015G21KT 10SM BKN042 05/M04 A3005 RMK AO2 SLP170 T00501039
                 10122 20050 51022 =
2017-11-22 17:53 METAR KTTN 222253Z 33011G19KT 10SM FEW043 06/M04 A3003 RMK AO2 SLP164 T00561039
                 =
2017-11-22 16:53 METAR KTTN 222153Z 34015KT 10SM BKN045 06/M03 A3001 RMK AO2 SLP156 T00611028 =
2017-11-22 15:53 METAR KTTN 222053Z 34014G21KT 10SM OVC045 08/M01 A2998 RMK AO2 SLP148 T00781011
                 51026 =
2017-11-22 14:53 METAR KTTN 221953Z 34011G19KT 10SM BKN039 BKN046 08/01 A2996 RMK AO2 SLP140
                 T00830006 =
2017-11-22 13:53 METAR KTTN 221853Z 33010G24KT 10SM OVC060 09/02 A2993 RMK AO2 SLP131 T00940017 =
2017-11-22 12:53 METAR KTTN 221753Z 34016G23KT 10SM SCT039 BKN050 12/03 A2991 RMK AO2 PK WND
                 34027/1738 RAB38E52 SLP121 P0000 60004 T01170033 10133 20083 55002 =
2017-11-22 11:53 METAR KTTN 221653Z 31011G16KT 10SM BKN110 12/06 A2990 RMK AO2 RAE1555 SLP118
                 P0000 T01220056 =
2017-11-22 11:38 METAR KTTN 221638Z 34011KT 10SM FEW080 OVC110 12/06 A2990 RMK AO2 RAE1555 P0000
                 T01170061 =
2017-11-22 10:53 METAR KTTN 221553Z 30005KT 10SM -RA BKN065 BKN080 OVC100 10/08 A2991 RMK AO2
                 RAB37 SLP123 P0000 T01000083 =
2017-11-22 09:53 METAR KTTN 221453Z 30005KT 8SM OVC070 09/08 A2991 RMK AO2 SLP124 60004 T00890078
                 53001 =
2017-11-22 08:53 METAR KTTN 221353Z 32004KT 8SM BKN055 BKN075 OVC110 09/08 A2990 RMK AO2 RAE07
                 SLP121 P0000 T00890083 =
2017-11-22 07:53 METAR KTTN 221253Z 34004KT 4SM RA BR OVC070 08/07 A2990 RMK AO2 SLP120 P0004
                 T00830072 =
2017-11-22 07:02 METAR KTTN 221202Z 00000KT 8SM -RA SCT019 BKN037 OVC070 09/07 A2991 RMK AO2
                 P0000 T00890072 =
2017-11-22 06:53 METAR KTTN 221153Z 00000KT 6SM -RA BR BKN019 BKN035 OVC075 09/07 A2991 RMK AO2
                 RAB38 SLP122 P0002 60002 70002 T00890072 10089 20072 55009 =
2017-11-22 06:13 METAR KTTN 221113Z 00000KT 10SM SCT024 OVC035 09/07 A2990 RMK AO2 T00890067 =
2017-11-22 05:53 METAR KTTN 221053Z 00000KT 10SM BKN025 OVC031 09/07 A2990 RMK AO2 SLP120
                 T00890067 =
2017-11-22 04:53 METAR KTTN 220953Z AUTO 00000KT 10SM OVC018 08/06 A2991 RMK AO2 SLP122 T00830061
                 =
2017-11-22 04:42 METAR KTTN 220942Z AUTO 00000KT 10SM BKN018 OVC110 08/06 A2991 RMK AO2 T00830061
                 =

Support USWX by starting your Amazon purchase here.